Time;durP1;ratioP1;P1;durP2;ratioP2;P2;SDS_P1;SDS_P2;PMS_P1;PMS_P2;Temp;Humidity;BMP_temperature;BMP_pressure;BME280_temperature;BME280_humidity;BME280_pressure;Samples;Min_cycle;Max_cycle;Signal;HPM_P1;HPM_P2
2022/05/19 00:01:01;;;;;;;;;;;;;;;8.54;54.29;99562.09;4983992;28;19925;-69
2022/05/19 00:03:28;;;;;;;;;;;;;;;8.54;54.31;99559.38;5004022;28;19925;-69
2022/05/19 00:05:55;;;;;;;;;;;;;;;8.55;54.79;99571.91;5004026;28;20325;-70
2022/05/19 00:08:21;;;;;;;;;;;;;;;8.52;54.49;99561.56;5001531;28;20393;-69
2022/05/19 00:10:50;;;;;;;;;;;;;;;8.46;54.76;99554.44;4997191;28;20397;-70
2022/05/19 00:13:16;;;;;;;;;;;;;;;8.38;55.32;99562.00;5005077;28;19931;-70
2022/05/19 00:15:42;;;;;;;;;;;;;;;8.35;55.48;99562.53;5006829;28;19926;-70
2022/05/19 00:18:07;;;;;;;;;;;;;;;8.36;55.35;99557.94;5006379;28;19925;-70
2022/05/19 00:20:33;;;;;;;;;;;;;;;8.43;55.49;99560.38;5006649;28;19925;-69
2022/05/19 00:23:00;;;;;;;;;;;;;;;8.50;55.14;99561.00;5004763;28;19969;-70
2022/05/19 00:25:26;;;;;;;;;;;;;;;8.56;54.73;99550.94;5016813;28;19924;-69
2022/05/19 00:27:52;;;;;;;;;;;;;;;8.59;54.47;99547.69;5023603;28;19947;-69
2022/05/19 00:30:18;;;;;;;;;;;;;;;8.61;54.96;99535.44;5040282;28;20047;-69
2022/05/19 00:32:44;;;;;;;;;;;;;;;8.62;54.65;99530.78;5024415;28;20268;-70
2022/05/19 00:35:09;;;;;;;;;;;;;;;8.60;54.92;99524.78;5029162;28;20020;-70
2022/05/19 00:37:35;;;;;;;;;;;;;;;8.57;54.91;99544.41;5027768;28;20368;-70
2022/05/19 00:40:03;;;;;;;;;;;;;;;8.58;54.92;99546.84;5024690;28;19979;-70
2022/05/19 00:42:44;;;;;;;;;;;;;;;8.61;54.80;99546.34;5023984;28;19925;-69
2022/05/19 00:45:10;;;;;;;;;;;;;;;8.61;55.01;99550.94;5024212;28;19936;-70
2022/05/19 00:47:39;;;;;;;;;;;;;;;8.62;54.96;99556.16;5022048;28;20404;-69
2022/05/19 00:50:07;;;;;;;;;;;;;;;8.65;55.12;99552.03;5038637;28;19929;-69
2022/05/19 00:52:35;;;;;;;;;;;;;;;8.66;55.47;99545.50;5023432;28;19925;-69
2022/05/19 00:55:05;;;;;;;;;;;;;;;8.67;55.20;99547.19;5024130;28;19961;-70
2022/05/19 00:57:33;;;;;;;;;;;;;;;8.67;55.41;99538.16;5022423;28;19968;-70
2022/05/19 01:00:01;;;;;;;;;;;;;;;8.44;55.96;99519.25;5023826;28;20306;-70
2022/05/19 01:02:33;;;;;;;;;;;;;;;8.51;56.08;99538.13;5025372;28;19929;-70
2022/05/19 01:05:01;;;;;;;;;;;;;;;8.49;56.10;99541.06;5026021;28;19935;-69
2022/05/19 01:07:30;;;;;;;;;;;;;;;8.44;56.29;99545.69;5019414;28;19925;-70
2022/05/19 01:09:57;;;;;;;;;;;;;;;8.36;56.35;99541.59;5003375;28;20028;-69
2022/05/19 01:12:26;;;;;;;;;;;;;;;8.32;56.88;99554.91;5006333;28;19925;-69
2022/05/19 01:14:52;;;;;;;;;;;;;;;8.27;57.18;99543.97;5005131;28;19925;-69
2022/05/19 01:17:18;;;;;;;;;;;;;;;8.25;56.73;99553.50;5004966;28;19925;-69
2022/05/19 01:19:45;;;;;;;;;;;;;;;8.25;56.37;99531.72;5007780;28;19926;-70
2022/05/19 01:22:16;;;;;;;;;;;;;;;8.27;56.84;99538.53;5021093;28;19929;-69
2022/05/19 01:24:46;;;;;;;;;;;;;;;8.33;56.42;99539.38;5003248;28;19932;-70
2022/05/19 01:27:13;;;;;;;;;;;;;;;8.38;56.40;99542.94;5019866;28;19965;-70
2022/05/19 01:29:39;;;;;;;;;;;;;;;8.42;56.43;99531.50;5004045;28;20003;-70
2022/05/19 01:32:05;;;;;;;;;;;;;;;8.45;56.15;99544.63;5002924;28;20295;-70
2022/05/19 01:34:32;;;;;;;;;;;;;;;8.51;56.25;99547.13;5004380;28;19947;-69
2022/05/19 01:36:58;;;;;;;;;;;;;;;8.56;55.49;99542.78;5002430;28;19925;-69
2022/05/19 01:39:31;;;;;;;;;;;;;;;8.56;56.03;99535.41;5006928;28;19925;-72
2022/05/19 01:42:04;;;;;;;;;;;;;;;8.53;55.85;99544.13;5004386;28;19925;-72
2022/05/19 01:44:43;;;;;;;;;;;;;;;8.50;55.97;99542.72;5004728;28;19925;-72
2022/05/19 01:47:13;;;;;;;;;;;;;;;8.50;55.81;99548.19;4989620;28;19925;-70
2022/05/19 01:49:42;;;;;;;;;;;;;;;8.54;55.74;99528.59;5022640;28;20339;-72
2022/05/19 01:52:11;;;;;;;;;;;;;;;8.53;55.85;99533.22;5003205;28;19926;-72
2022/05/19 01:54:42;;;;;;;;;;;;;;;8.53;55.96;99543.31;5005469;28;19980;-72
2022/05/19 01:57:10;;;;;;;;;;;;;;;8.53;55.54;99541.38;5031879;28;20028;-71
2022/05/19 01:59:40;;;;;;;;;;;;;;;8.54;55.72;99534.03;5022102;28;19929;-72
2022/05/19 02:02:10;;;;;;;;;;;;;;;8.56;56.38;99537.31;5006678;28;20380;-72
2022/05/19 02:04:39;;;;;;;;;;;;;;;8.55;56.36;99532.97;5003921;28;20277;-72
2022/05/19 02:07:07;;;;;;;;;;;;;;;8.57;56.50;99522.59;4999717;28;19929;-71
2022/05/19 02:09:36;;;;;;;;;;;;;;;8.59;56.72;99529.44;5002549;28;20399;-71
2022/05/19 02:12:02;;;;;;;;;;;;;;;8.62;56.57;99531.63;5004170;28;20415;-72
2022/05/19 02:14:30;;;;;;;;;;;;;;;8.65;56.33;99525.63;5003989;28;19929;-71
2022/05/19 02:16:58;;;;;;;;;;;;;;;8.70;56.67;99533.00;5019360;28;19936;-72
2022/05/19 02:19:26;;;;;;;;;;;;;;;8.74;56.23;99530.53;5006436;28;19956;-72
2022/05/19 02:21:53;;;;;;;;;;;;;;;8.75;55.79;99533.00;5006824;28;19931;-72
2022/05/19 02:24:20;;;;;;;;;;;;;;;8.80;56.00;99540.38;5005026;28;19972;-71
2022/05/19 02:26:46;;;;;;;;;;;;;;;8.83;56.23;99539.84;5006784;28;20396;-71
2022/05/19 02:29:16;;;;;;;;;;;;;;;8.85;56.44;99539.56;5003374;28;19956;-71
2022/05/19 02:31:43;;;;;;;;;;;;;;;8.89;56.23;99537.94;5002785;28;19971;-71
2022/05/19 02:34:10;;;;;;;;;;;;;;;8.99;56.07;99542.59;5004163;28;19932;-72
2022/05/19 02:36:36;;;;;;;;;;;;;;;9.06;55.45;99543.16;5001957;28;19965;-71
2022/05/19 02:39:02;;;;;;;;;;;;;;;9.08;55.47;99544.50;5002570;28;20028;-72
2022/05/19 02:41:28;;;;;;;;;;;;;;;9.05;55.51;99544.22;5005719;28;20416;-72
2022/05/19 02:43:53;;;;;;;;;;;;;;;9.00;55.64;99542.34;5005027;28;19956;-72
2022/05/19 02:46:19;;;;;;;;;;;;;;;9.01;55.75;99538.50;5005938;28;20215;-71
2022/05/19 02:48:45;;;;;;;;;;;;;;;9.02;55.56;99545.59;5002415;28;19967;-71
2022/05/19 02:51:12;;;;;;;;;;;;;;;9.03;55.77;99536.31;5003444;28;19932;-71
2022/05/19 02:53:38;;;;;;;;;;;;;;;9.04;56.01;99537.13;5002185;28;20363;-72
2022/05/19 02:56:04;;;;;;;;;;;;;;;9.01;56.16;99524.88;5003752;28;19932;-72
2022/05/19 02:58:30;;;;;;;;;;;;;;;8.96;56.33;99507.69;5000945;28;20329;-72
2022/05/19 03:00:56;;;;;;;;;;;;;;;8.92;56.50;99486.41;5002493;28;20019;-72
2022/05/19 03:03:22;;;;;;;;;;;;;;;8.93;56.54;99487.22;5001294;28;19925;-71
2022/05/19 03:05:49;;;;;;;;;;;;;;;8.94;56.48;99495.16;5014582;28;19926;-72
2022/05/19 03:08:17;;;;;;;;;;;;;;;8.99;56.50;99499.78;5001382;28;20024;-72
2022/05/19 03:10:43;;;;;;;;;;;;;;;9.00;55.96;99516.97;5002076;28;19933;-73
2022/05/19 03:13:15;;;;;;;;;;;;;;;8.99;55.78;99516.16;5001294;28;19932;-72
2022/05/19 03:15:41;;;;;;;;;;;;;;;9.06;56.18;99518.63;5003795;28;19972;-74
2022/05/19 03:18:07;;;;;;;;;;;;;;;9.21;56.30;99515.91;5001971;28;19929;-71
2022/05/19 03:20:32;;;;;;;;;;;;;;;9.37;55.84;99518.63;5000837;28;19926;-72
2022/05/19 03:22:58;;;;;;;;;;;;;;;9.46;55.47;99514.22;5003309;28;19932;-72
2022/05/19 03:25:26;;;;;;;;;;;;;;;9.55;55.23;99508.22;5000591;28;20398;-72
2022/05/19 03:27:51;;;;;;;;;;;;;;;9.60;54.42;99514.50;5002797;28;19932;-72
2022/05/19 03:30:17;;;;;;;;;;;;;;;9.60;54.54;99517.22;5002304;28;19925;-72
2022/05/19 03:32:43;;;;;;;;;;;;;;;9.63;54.73;99516.69;5001856;28;20463;-72
2022/05/19 03:35:10;;;;;;;;;;;;;;;9.71;54.71;99504.38;5000279;28;20442;-70
2022/05/19 03:37:36;;;;;;;;;;;;;;;9.84;54.29;99505.72;5001515;28;20380;-72
2022/05/19 03:40:04;;;;;;;;;;;;;;;9.95;54.21;99508.41;5001725;28;19971;-72
2022/05/19 03:42:31;;;;;;;;;;;;;;;9.88;54.17;99508.72;5007460;28;19956;-72
2022/05/19 03:44:57;;;;;;;;;;;;;;;9.81;54.35;99505.44;5022137;28;19925;-72
2022/05/19 03:47:22;;;;;;;;;;;;;;;9.76;54.55;99507.09;5022242;28;19925;-72
2022/05/19 03:49:48;;;;;;;;;;;;;;;9.74;54.37;99512.00;5018264;28;19925;-70
2022/05/19 03:52:14;;;;;;;;;;;;;;;9.77;54.09;99511.44;5025633;28;20015;-70
2022/05/19 03:54:40;;;;;;;;;;;;;;;9.85;53.78;99512.00;5024349;28;20044;-70
2022/05/19 03:57:06;;;;;;;;;;;;;;;9.98;53.75;99511.38;5025643;28;20372;-69
2022/05/19 03:59:34;;;;;;;;;;;;;;;10.08;53.55;99510.56;5008757;28;19926;-69
2022/05/19 04:02:00;;;;;;;;;;;;;;;10.06;53.50;99520.94;5005166;28;19929;-70
2022/05/19 04:04:26;;;;;;;;;;;;;;;9.97;53.59;99526.16;5006018;28;20028;-70
2022/05/19 04:06:52;;;;;;;;;;;;;;;9.87;54.64;99526.19;5002190;28;20028;-70
2022/05/19 04:09:17;;;;;;;;;;;;;;;9.79;54.27;99531.09;5007098;28;19987;-70
2022/05/19 04:11:43;;;;;;;;;;;;;;;9.64;54.37;99539.31;5005623;28;20016;-69
2022/05/19 04:14:12;;;;;;;;;;;;;;;9.52;54.60;99534.16;5008090;28;19925;-70
2022/05/19 04:16:40;;;;;;;;;;;;;;;9.60;54.54;99538.25;5004983;28;19925;-70
2022/05/19 04:19:05;;;;;;;;;;;;;;;9.64;54.92;99539.31;5004908;28;19929;-70
2022/05/19 04:21:32;;;;;;;;;;;;;;;9.67;54.81;99530.56;5005547;28;19925;-70
2022/05/19 04:23:58;;;;;;;;;;;;;;;9.71;55.19;99539.88;5005234;28;19933;-70
2022/05/19 04:26:23;;;;;;;;;;;;;;;9.76;55.18;99533.59;5005834;28;19925;-70
2022/05/19 04:28:49;;;;;;;;;;;;;;;9.85;55.49;99534.66;4989516;28;20408;-70
2022/05/19 04:31:15;;;;;;;;;;;;;;;9.89;55.59;99526.72;4990511;28;20385;-73
2022/05/19 04:33:42;;;;;;;;;;;;;;;9.92;55.98;99528.91;5008222;28;19929;-72
2022/05/19 04:36:08;;;;;;;;;;;;;;;10.00;55.55;99530.25;5026907;28;19975;-71
2022/05/19 04:38:34;;;;;;;;;;;;;;;10.11;55.24;99536.50;5020201;28;19925;-71
2022/05/19 04:41:01;;;;;;;;;;;;;;;10.21;54.92;99531.81;5018984;28;19936;-72
2022/05/19 04:43:26;;;;;;;;;;;;;;;10.21;54.56;99531.00;5004176;28;19925;-72
2022/05/19 04:45:53;;;;;;;;;;;;;;;10.15;54.78;99534.84;5008741;28;19925;-72
2022/05/19 04:48:20;;;;;;;;;;;;;;;10.15;55.42;99532.94;5026833;28;19931;-72
2022/05/19 04:50:49;;;;;;;;;;;;;;;10.10;55.17;99527.50;5026960;28;19925;-72
2022/05/19 04:53:15;;;;;;;;;;;;;;;10.10;55.97;99534.84;5021846;28;19925;-72
2022/05/19 04:55:41;;;;;;;;;;;;;;;10.09;56.05;99536.78;5026857;28;20039;-72
2022/05/19 04:58:07;;;;;;;;;;;;;;;10.13;56.45;99548.78;5016299;28;19960;-72
2022/05/19 05:00:35;;;;;;;;;;;;;;;10.16;56.75;99544.69;5011079;28;19933;-72
2022/05/19 05:03:00;;;;;;;;;;;;;;;10.26;56.73;99543.84;5022959;28;19929;-71
2022/05/19 05:05:26;;;;;;;;;;;;;;;10.39;56.44;99551.44;4664969;28;10000619;-72
2022/05/19 05:07:54;;;;;;;;;;;;;;;10.48;56.21;99551.69;4982104;28;20411;-72
2022/05/19 05:10:19;;;;;;;;;;;;;;;10.36;56.43;99546.50;5001404;28;20028;-72
2022/05/19 05:12:45;;;;;;;;;;;;;;;10.28;56.95;99556.09;5000656;28;20024;-72
2022/05/19 05:15:11;;;;;;;;;;;;;;;10.26;57.00;99550.09;4978772;28;19929;-72
2022/05/19 05:17:38;;;;;;;;;;;;;;;10.30;57.23;99553.94;4981581;28;20198;-72
2022/05/19 05:20:05;;;;;;;;;;;;;;;10.42;57.62;99550.91;5003024;28;19925;-72
2022/05/19 05:22:34;;;;;;;;;;;;;;;10.41;57.58;99546.53;5003648;28;19952;-72
2022/05/19 05:25:02;;;;;;;;;;;;;;;10.50;57.55;99549.50;5003082;28;19940;-71
2022/05/19 05:27:29;;;;;;;;;;;;;;;10.52;57.46;99547.31;4998028;28;20316;-72
2022/05/19 05:29:55;;;;;;;;;;;;;;;10.57;57.42;99547.25;4999129;28;20323;-72
2022/05/19 05:32:21;;;;;;;;;;;;;;;10.70;57.43;99534.91;5001987;28;20024;-72
2022/05/19 05:34:46;;;;;;;;;;;;;;;10.76;56.61;99533.78;5006731;28;20023;-69
2022/05/19 05:37:12;;;;;;;;;;;;;;;10.84;56.40;99532.34;5003045;28;20343;-69
2022/05/19 05:39:38;;;;;;;;;;;;;;;10.89;56.41;99537.00;5009940;28;20388;-69
2022/05/19 05:42:06;;;;;;;;;;;;;;;10.86;57.12;99541.09;5006218;28;19932;-69
2022/05/19 05:44:32;;;;;;;;;;;;;;;10.73;57.76;99536.25;5007048;28;19932;-69
2022/05/19 05:46:58;;;;;;;;;;;;;;;10.74;57.34;99549.66;5005658;28;19925;-69
2022/05/19 05:49:24;;;;;;;;;;;;;;;10.64;57.67;99545.06;5006769;28;20021;-69
2022/05/19 05:51:50;;;;;;;;;;;;;;;10.51;57.87;99542.94;5007371;28;19925;-69
2022/05/19 05:54:18;;;;;;;;;;;;;;;10.45;58.45;99541.31;5009033;28;19996;-69
2022/05/19 05:56:44;;;;;;;;;;;;;;;10.47;58.80;99533.66;5020098;28;19925;-69
2022/05/19 05:59:11;;;;;;;;;;;;;;;10.56;58.04;99542.09;5006100;28;19956;-70
2022/05/19 06:01:37;;;;;;;;;;;;;;;10.56;57.87;99542.91;5003636;28;19925;-69
2022/05/19 06:04:03;;;;;;;;;;;;;;;10.54;57.88;99545.09;5004553;28;19932;-69
2022/05/19 06:06:29;;;;;;;;;;;;;;;10.48;58.26;99535.31;5003955;28;20308;-69
2022/05/19 06:08:55;;;;;;;;;;;;;;;10.55;58.09;99537.72;5017369;28;19925;-69
2022/05/19 06:11:21;;;;;;;;;;;;;;;10.59;57.92;99545.06;5024849;28;19980;-70
2022/05/19 06:13:49;;;;;;;;;;;;;;;10.77;57.84;99531.84;5007817;28;20233;-70
2022/05/19 06:16:16;;;;;;;;;;;;;;;10.80;57.56;99535.94;4991792;28;19963;-70
2022/05/19 06:18:42;;;;;;;;;;;;;;;10.69;57.91;99529.72;4992016;28;20021;-70
2022/05/19 06:21:08;;;;;;;;;;;;;;;10.61;58.18;99542.91;4992739;28;20435;-70
2022/05/19 06:23:34;;;;;;;;;;;;;;;10.71;58.46;99530.25;5001619;28;19999;-70
2022/05/19 06:26:00;;;;;;;;;;;;;;;10.68;58.30;99528.88;5008591;28;19924;-72
2022/05/19 06:28:26;;;;;;;;;;;;;;;10.73;58.57;99526.13;5005016;28;19925;-73
2022/05/19 06:30:52;;;;;;;;;;;;;;;10.90;58.60;99525.75;5002299;28;19925;-70
2022/05/19 06:33:22;;;;;;;;;;;;;;;11.13;58.49;99528.06;5009499;28;20260;-71
2022/05/19 06:35:48;;;;;;;;;;;;;;;11.36;58.38;99521.03;4983122;28;20024;-72
2022/05/19 06:38:15;;;;;;;;;;;;;;;11.47;58.20;99521.75;5003490;28;20420;-72
2022/05/19 06:40:41;;;;;;;;;;;;;;;11.49;58.31;99525.84;5017863;28;20399;-72
2022/05/19 06:43:08;;;;;;;;;;;;;;;11.45;58.65;99527.53;5000894;28;19964;-73
2022/05/19 06:45:34;;;;;;;;;;;;;;;11.53;58.62;99528.84;4996319;28;20416;-70
2022/05/19 06:47:59;;;;;;;;;;;;;;;11.74;58.40;99523.16;5002582;28;19938;-72
2022/05/19 06:50:27;;;;;;;;;;;;;;;11.81;57.35;99531.03;5003314;28;20429;-72
2022/05/19 06:52:55;;;;;;;;;;;;;;;11.80;56.68;99538.44;5021089;28;19932;-72
2022/05/19 06:55:22;;;;;;;;;;;;;;;11.80;56.36;99532.13;5002664;28;19968;-72
2022/05/19 06:57:47;;;;;;;;;;;;;;;11.70;56.87;99533.84;4998829;28;19932;-72
2022/05/19 07:00:16;;;;;;;;;;;;;;;11.61;57.15;99524.66;4996966;28;19925;-72
2022/05/19 07:02:43;;;;;;;;;;;;;;;11.63;57.54;99536.13;5001151;28;19963;-72
2022/05/19 07:05:09;;;;;;;;;;;;;;;11.66;57.57;99541.03;5004134;28;19925;-71
2022/05/19 07:07:37;;;;;;;;;;;;;;;11.66;57.78;99540.22;5012678;28;19925;-72
2022/05/19 07:10:03;;;;;;;;;;;;;;;11.62;58.38;99543.50;5002380;28;20032;-71
2022/05/19 07:12:29;;;;;;;;;;;;;;;11.65;58.53;99541.34;5005294;28;19960;-72
2022/05/19 07:14:55;;;;;;;;;;;;;;;11.70;58.45;99550.28;4999701;28;19965;-71
2022/05/19 07:17:21;;;;;;;;;;;;;;;11.72;58.82;99537.16;4998332;28;20618;-72
2022/05/19 07:22:33;;;;;;;;;;;;;;;11.66;59.93;99540.22;5008574;28;19945;-71
2022/05/19 07:25:00;;;;;;;;;;;;;;;11.71;60.19;99551.13;5026358;28;20019;-71
2022/05/19 07:27:26;;;;;;;;;;;;;;;11.60;60.12;99531.25;5027179;28;20407;-70
2022/05/19 07:29:52;;;;;;;;;;;;;;;11.60;60.49;99537.50;5004597;28;19926;-72
2022/05/19 07:32:18;;;;;;;;;;;;;;;11.47;60.95;99530.78;5008045;28;19991;-71
2022/05/19 07:34:43;;;;;;;;;;;;;;;11.26;61.59;99543.81;5006870;28;20019;-71
2022/05/19 07:37:11;;;;;;;;;;;;;;;11.34;61.49;99540.50;5003976;28;19925;-71
2022/05/19 07:39:36;;;;;;;;;;;;;;;11.47;61.17;99538.19;5008039;28;19925;-71
2022/05/19 07:42:04;;;;;;;;;;;;;;;11.49;61.21;99541.47;5001692;28;20411;-71
2022/05/19 07:44:30;;;;;;;;;;;;;;;11.48;61.61;99542.56;5000113;28;19925;-70
2022/05/19 07:46:56;;;;;;;;;;;;;;;11.55;61.53;99536.75;5018419;28;19925;-69
2022/05/19 07:49:22;;;;;;;;;;;;;;;11.71;61.54;99537.44;5016246;28;19925;-69
2022/05/19 07:51:48;;;;;;;;;;;;;;;11.82;61.29;99533.50;5004909;28;20281;-71
2022/05/19 07:54:16;;;;;;;;;;;;;;;11.85;61.43;99535.63;5002543;28;19925;-69
2022/05/19 07:56:43;;;;;;;;;;;;;;;11.90;61.77;99534.78;5010441;28;20032;-69
2022/05/19 07:59:11;;;;;;;;;;;;;;;11.87;61.70;99524.41;5001516;28;19925;-69
2022/05/19 08:01:37;;;;;;;;;;;;;;;12.03;61.79;99522.34;4990084;28;19930;-69
2022/05/19 08:04:04;;;;;;;;;;;;;;;12.11;61.67;99520.88;4997507;28;19984;-69
2022/05/19 08:06:29;;;;;;;;;;;;;;;12.05;61.54;99503.66;4997489;28;19925;-69
2022/05/19 08:08:58;;;;;;;;;;;;;;;12.26;61.52;99520.69;5001520;28;19980;-69
2022/05/19 08:11:24;;;;;;;;;;;;;;;12.26;61.66;99509.72;5002805;28;19975;-70
2022/05/19 08:16:36;;;;;;;;;;;;;;;12.56;59.49;99517.84;5002074;28;20071;-69
2022/05/19 08:19:01;;;;;;;;;;;;;;;12.50;59.34;99519.03;5002406;28;19929;-69
2022/05/19 08:21:27;;;;;;;;;;;;;;;12.94;58.76;99514.28;4985365;28;20305;-69
2022/05/19 08:23:53;;;;;;;;;;;;;;;13.43;56.49;99510.25;4990808;28;19925;-69
2022/05/19 08:26:20;;;;;;;;;;;;;;;13.25;55.26;99508.31;4988312;28;20401;-70
2022/05/19 08:28:47;;;;;;;;;;;;;;;13.02;55.53;99497.97;5007766;28;20340;-71
2022/05/19 08:31:14;;;;;;;;;;;;;;;13.20;55.26;99495.50;5002126;28;19960;-71
2022/05/19 08:33:44;;;;;;;;;;;;;;;13.85;54.05;99502.09;5005319;28;20041;-72
2022/05/19 08:36:12;;;;;;;;;;;;;;;14.21;51.87;99511.56;5003594;28;19984;-71
2022/05/19 08:38:38;;;;;;;;;;;;;;;14.28;50.83;99500.13;5002884;28;19996;-72
2022/05/19 08:41:06;;;;;;;;;;;;;;;14.45;50.69;99499.50;5009548;28;19930;-71
2022/05/19 08:43:38;;;;;;;;;;;;;;;14.70;50.32;99498.13;5008128;28;19925;-72
2022/05/19 08:46:06;;;;;;;;;;;;;;;15.29;47.64;99490.97;5006897;28;19929;-72
2022/05/19 08:48:35;;;;;;;;;;;;;;;15.43;46.89;99496.44;5004060;28;19929;-72
2022/05/19 08:51:03;;;;;;;;;;;;;;;14.92;47.82;99490.25;5004685;28;19988;-72
2022/05/19 08:53:31;;;;;;;;;;;;;;;14.46;48.92;99504.72;5021492;28;19925;-72
2022/05/19 08:56:00;;;;;;;;;;;;;;;14.03;49.61;99502.28;5008213;28;20400;-71
2022/05/19 08:58:33;;;;;;;;;;;;;;;13.69;50.27;99498.00;5006001;28;19931;-71
2022/05/19 09:01:02;;;;;;;;;;;;;;;13.47;50.27;99494.78;5006441;28;19926;-71
2022/05/19 09:03:37;;;;;;;;;;;;;;;13.33;50.46;99491.97;5000206;28;19929;-71
2022/05/19 09:06:22;;;;;;;;;;;;;;;13.37;50.98;99483.94;4970641;28;19925;-71
2022/05/19 09:08:54;;;;;;;;;;;;;;;13.45;51.15;99486.06;4986514;28;20004;-71
2022/05/19 09:11:22;;;;;;;;;;;;;;;13.67;50.59;99495.53;4985409;28;19983;-71
2022/05/19 09:13:52;;;;;;;;;;;;;;;13.84;50.21;99483.13;5016265;28;19929;-72
2022/05/19 09:16:19;;;;;;;;;;;;;;;14.66;49.16;99491.63;5009198;28;19999;-71
2022/05/19 09:18:48;;;;;;;;;;;;;;;16.15;45.78;99475.19;5003001;28;20008;-72
2022/05/19 09:21:13;;;;;;;;;;;;;;;16.95;44.10;99480.81;5005648;28;19976;-72
2022/05/19 09:23:41;;;;;;;;;;;;;;;17.25;43.91;99479.03;5003726;28;20320;-72
2022/05/19 09:26:21;;;;;;;;;;;;;;;17.31;43.55;99482.41;5006301;28;19932;-72
2022/05/19 09:28:54;;;;;;;;;;;;;;;17.00;43.71;99478.72;5002545;28;20355;-70
2022/05/19 09:31:32;;;;;;;;;;;;;;;16.87;43.78;99480.50;5003724;28;20019;-70
2022/05/19 09:33:57;;;;;;;;;;;;;;;17.30;43.00;99469.75;5018432;28;20451;-70
2022/05/19 09:36:23;;;;;;;;;;;;;;;18.23;41.19;99471.22;4981842;28;20032;-70
2022/05/19 09:38:59;;;;;;;;;;;;;;;18.37;40.19;99471.78;4995211;28;19929;-70
2022/05/19 09:41:28;;;;;;;;;;;;;;;17.62;40.68;99475.84;4985434;28;20400;-70
2022/05/19 09:43:55;;;;;;;;;;;;;;;18.09;39.22;99472.25;5002144;28;20424;-71
2022/05/19 09:46:21;;;;;;;;;;;;;;;19.42;36.93;99456.22;4994910;28;19932;-72
2022/05/19 09:48:48;;;;;;;;;;;;;;;18.86;38.12;99467.66;5002849;28;19929;-72
2022/05/19 09:51:15;;;;;;;;;;;;;;;17.86;39.19;99472.50;4986549;28;20020;-71
2022/05/19 09:53:42;;;;;;;;;;;;;;;17.95;38.85;99460.59;5006025;28;20383;-73
2022/05/19 09:56:11;;;;;;;;;;;;;;;18.41;37.93;99469.13;5010111;28;19983;-72
2022/05/19 09:58:38;;;;;;;;;;;;;;;18.87;37.40;99466.53;4988775;28;19968;-72
2022/05/19 10:01:05;;;;;;;;;;;;;;;19.46;36.32;99464.69;5026463;28;19926;-72
2022/05/19 10:03:34;;;;;;;;;;;;;;;19.58;35.62;99466.66;5008211;28;19933;-72
2022/05/19 10:06:04;;;;;;;;;;;;;;;20.03;34.73;99455.88;5004061;28;20394;-72
2022/05/19 10:08:35;;;;;;;;;;;;;;;20.52;33.79;99449.41;5001667;28;19925;-73
2022/05/19 10:11:03;;;;;;;;;;;;;;;21.44;31.71;99437.72;4998553;28;19941;-72
2022/05/19 10:13:36;;;;;;;;;;;;;;;21.11;31.30;99438.81;5001808;28;19926;-70
2022/05/19 10:16:07;;;;;;;;;;;;;;;20.91;31.65;99446.19;5029877;28;19929;-70
2022/05/19 10:18:39;;;;;;;;;;;;;;;21.46;30.93;99432.59;5004552;28;20511;-70
2022/05/19 10:21:11;;;;;;;;;;;;;;;20.27;32.47;99439.16;5005732;28;20377;-70
2022/05/19 10:23:44;;;;;;;;;;;;;;;20.16;33.06;99434.47;5003567;28;19925;-70
2022/05/19 10:26:20;;;;;;;;;;;;;;;20.55;32.47;99432.09;5004474;28;19956;-69
2022/05/19 10:31:53;;;;;;;;;;;;;;;22.51;29.03;99437.09;5003874;28;20320;-70
2022/05/19 10:34:34;;;;;;;;;;;;;;;22.69;28.75;99437.50;5002290;28;19925;-71
2022/05/19 10:37:06;;;;;;;;;;;;;;;22.46;28.93;99423.44;5003757;28;20054;-70
2022/05/19 10:39:47;;;;;;;;;;;;;;;21.46;30.12;99426.25;5018407;28;19929;-70
2022/05/19 10:42:15;;;;;;;;;;;;;;;20.29;31.40;99427.72;4992422;28;19925;-70
2022/05/19 10:44:50;;;;;;;;;;;;;;;19.17;33.50;99429.59;5005524;28;19925;-70
2022/05/19 10:47:26;;;;;;;;;;;;;;;19.07;34.08;99415.03;5022363;28;20015;-70
2022/05/19 10:50:03;;;;;;;;;;;;;;;19.00;34.54;99414.78;5005445;28;19925;-69
2022/05/19 10:52:39;;;;;;;;;;;;;;;18.08;35.67;99408.97;5007933;28;20519;-70
2022/05/19 10:55:08;;;;;;;;;;;;;;;17.46;36.71;99433.28;5008478;28;20031;-69
2022/05/19 10:57:40;;;;;;;;;;;;;;;17.41;36.45;99423.25;5001999;28;19926;-70
2022/05/19 11:00:11;;;;;;;;;;;;;;;17.11;37.45;99429.50;5000249;28;19932;-70
2022/05/19 11:02:55;;;;;;;;;;;;;;;16.84;38.52;99425.13;5011225;28;20016;-70
2022/05/19 11:05:32;;;;;;;;;;;;;;;16.81;38.03;99428.53;4972743;28;19921;-71
2022/05/19 11:08:02;;;;;;;;;;;;;;;17.57;37.24;99426.28;5009243;28;20032;-70
2022/05/19 11:10:33;;;;;;;;;;;;;;;18.50;35.63;99414.53;5011545;28;19929;-70
2022/05/19 11:13:17;;;;;;;;;;;;;;;18.08;36.01;99420.03;4990504;28;19925;-68
2022/05/19 11:15:45;;;;;;;;;;;;;;;17.82;35.75;99412.69;5017736;28;20214;-70
2022/05/19 11:18:14;;;;;;;;;;;;;;;18.06;35.34;99414.84;5003120;28;20428;-70
2022/05/19 11:20:43;;;;;;;;;;;;;;;18.46;34.43;99412.78;4996012;28;19987;-70
2022/05/19 11:23:12;;;;;;;;;;;;;;;19.16;33.39;99403.03;5005262;28;19925;-70
2022/05/19 11:28:32;;;;;;;;;;;;;;;17.37;35.54;99403.75;5004522;28;20146;-70
2022/05/19 11:31:02;;;;;;;;;;;;;;;17.09;36.23;99408.84;4982618;28;19926;-70
2022/05/19 11:33:33;;;;;;;;;;;;;;;17.78;35.22;99409.75;5018303;28;19957;-70
2022/05/19 11:36:03;;;;;;;;;;;;;;;17.77;35.45;99416.44;5002999;28;19925;-70
2022/05/19 11:38:31;;;;;;;;;;;;;;;17.52;35.94;99401.59;5010926;28;19995;-70
2022/05/19 11:41:00;;;;;;;;;;;;;;;17.38;36.20;99401.78;5004657;28;19935;-70
2022/05/19 11:43:30;;;;;;;;;;;;;;;17.34;36.66;99395.31;5004710;28;19925;-70
2022/05/19 11:46:01;;;;;;;;;;;;;;;17.14;36.98;99400.41;5006054;28;20016;-70
2022/05/19 11:57:03;;;;;;;;;;;;;;;18.32;35.65;99386.19;5004695;28;20021;-72
2022/05/19 11:59:29;;;;;;;;;;;;;;;18.26;35.46;99388.34;5003437;28;19940;-73
2022/05/19 12:01:55;;;;;;;;;;;;;;;18.05;35.58;99390.28;5016899;28;19925;-72
2022/05/19 12:04:24;;;;;;;;;;;;;;;17.71;36.32;99381.81;4998561;28;19978;-73
2022/05/19 12:06:55;;;;;;;;;;;;;;;17.46;36.85;99378.03;5006122;28;19925;-72
2022/05/19 12:09:24;;;;;;;;;;;;;;;17.25;37.29;99370.47;5013177;28;19924;-72
2022/05/19 12:11:52;;;;;;;;;;;;;;;16.96;37.98;99372.00;5024850;28;19925;-70
2022/05/19 12:14:30;;;;;;;;;;;;;;;16.69;38.21;99372.03;5006920;28;20020;-70
2022/05/19 12:17:09;;;;;;;;;;;;;;;16.54;38.66;99375.28;5008276;28;20418;-70
2022/05/19 12:19:36;;;;;;;;;;;;;;;16.38;38.92;99366.69;5009030;28;20536;-70
2022/05/19 12:22:05;;;;;;;;;;;;;;;16.20;40.02;99366.69;5017608;28;19957;-70
2022/05/19 12:24:32;;;;;;;;;;;;;;;16.45;39.30;99378.84;5010474;28;19925;-70
2022/05/19 12:26:59;;;;;;;;;;;;;;;16.44;39.42;99366.19;5018777;28;20420;-70
2022/05/19 12:29:29;;;;;;;;;;;;;;;15.92;40.12;99366.16;5010265;28;19925;-70
2022/05/19 12:32:03;;;;;;;;;;;;;;;15.93;40.57;99376.06;5006315;28;19970;-70
2022/05/19 12:34:31;;;;;;;;;;;;;;;15.85;41.62;99374.88;5005919;28;19925;-70
2022/05/19 12:37:10;;;;;;;;;;;;;;;15.61;42.50;99373.38;5022795;28;19925;-70
2022/05/19 12:39:43;;;;;;;;;;;;;;;15.43;42.75;99362.25;5006600;28;20424;-70
2022/05/19 12:42:22;;;;;;;;;;;;;;;15.70;42.82;99359.59;5007171;28;19925;-70
2022/05/19 12:44:51;;;;;;;;;;;;;;;17.05;39.79;99358.19;5003208;28;19936;-69
2022/05/19 12:47:19;;;;;;;;;;;;;;;17.35;38.43;99348.03;5005324;28;20430;-71
2022/05/19 12:50:04;;;;;;;;;;;;;;;17.25;38.85;99346.44;5019900;28;19926;-72
2022/05/19 12:52:45;;;;;;;;;;;;;;;16.97;39.01;99343.22;5008323;28;19925;-70
2022/05/19 12:55:41;;;;;;;;;;;;;;;16.49;39.75;99347.88;5025156;28;20066;-70
2022/05/19 12:58:22;;;;;;;;;;;;;;;16.21;40.37;99349.00;5012116;28;19933;-69
2022/05/19 13:00:48;;;;;;;;;;;;;;;16.10;40.56;99359.53;5006601;28;19968;-70
2022/05/19 13:03:17;;;;;;;;;;;;;;;15.91;40.81;99365.34;5005344;28;19929;-69
2022/05/19 13:05:46;;;;;;;;;;;;;;;15.78;41.24;99349.75;5008015;28;19932;-70
2022/05/19 13:08:13;;;;;;;;;;;;;;;15.63;41.49;99362.81;5002273;28;19933;-70
2022/05/19 13:10:43;;;;;;;;;;;;;;;15.43;41.54;99362.25;5006118;28;20400;-72
2022/05/19 13:13:17;;;;;;;;;;;;;;;15.30;41.64;99347.47;5004711;28;19933;-69
2022/05/19 13:15:49;;;;;;;;;;;;;;;15.26;40.96;99348.41;5009210;28;19971;-70